Time;durP1;ratioP1;P1;durP2;ratioP2;P2;SDS_P1;SDS_P2;PMS_P1;PMS_P2;Temp;Humidity;BMP_temperature;BMP_pressure;BME280_temperature;BME280_humidity;BME280_pressure;Samples;Min_cycle;Max_cycle;Signal;HPM_P1;HPM_P2
2022/05/22 00:01:07;;;;;;;1.80;1.70;;;;;;;12.76;72.11;101866.38;6214738;23;20422;-81
2022/05/22 00:03:35;;;;;;;1.58;1.48;;;;;;;12.76;71.89;101866.38;6215178;23;20000;-82
2022/05/22 00:06:01;;;;;;;1.63;1.52;;;;;;;12.78;72.24;101861.16;6214289;23;20011;-81
2022/05/22 00:08:26;;;;;;;2.30;1.50;;;;;;;12.77;72.17;101856.84;6215419;23;20001;-81
2022/05/22 00:10:54;;;;;;;2.27;1.67;;;;;;;12.77;71.95;101847.28;6214545;23;20326;-81
2022/05/22 00:13:19;;;;;;;1.60;1.50;;;;;;;12.80;72.17;101856.81;6214287;23;20016;-81
2022/05/22 00:18:28;;;;;;;1.50;1.40;;;;;;;12.79;72.61;101850.75;6214616;23;20098;-81
2022/05/22 00:20:54;;;;;;;1.60;1.50;;;;;;;12.76;72.88;101839.50;6213934;23;20012;-81
2022/05/22 00:23:19;;;;;;;1.60;1.50;;;;;;;12.77;72.81;101843.81;6214894;23;20019;-81
2022/05/22 00:25:44;;;;;;;1.77;1.60;;;;;;;12.76;73.04;101840.34;6214045;23;20029;-81
2022/05/22 00:28:09;;;;;;;1.60;1.50;;;;;;;12.74;72.92;101836.88;6214600;23;20008;-80
2022/05/22 00:30:35;;;;;;;1.90;1.47;;;;;;;12.78;73.28;101832.50;6214555;23;20005;-81
2022/05/22 00:33:02;;;;;;;1.27;1.20;;;;;;;12.78;72.85;101837.72;6213565;23;20124;-81
2022/05/22 00:35:27;;;;;;;1.52;1.42;;;;;;;12.78;72.89;101833.38;6214934;23;20028;-81
2022/05/22 00:37:53;;;;;;;1.47;1.40;;;;;;;12.80;72.75;101825.53;6214399;23;20012;-80
2022/05/22 00:40:18;;;;;;;1.97;1.33;;;;;;;12.79;72.56;101832.50;6214109;23;20016;-81
2022/05/22 00:42:46;;;;;;;2.47;1.80;;;;;;;12.78;72.49;101833.38;6214864;23;20009;-80
2022/05/22 00:45:12;;;;;;;1.80;1.70;;;;;;;12.79;72.44;101831.63;6214633;23;20384;-81
2022/05/22 00:47:39;;;;;;;1.63;1.50;;;;;;;12.78;72.48;101828.19;6214074;23;20028;-81
2022/05/22 00:50:05;;;;;;;1.73;1.60;;;;;;;12.77;72.39;101829.03;6214984;23;20036;-81
2022/05/22 00:52:41;;;;;;;2.17;1.80;;;;;;;12.75;72.58;101817.78;6214864;23;20008;-81
2022/05/22 00:55:14;;;;;;;2.47;1.87;;;;;;;12.74;72.30;101826.47;6214522;23;20001;-81
2022/05/22 00:57:45;;;;;;;1.90;1.80;;;;;;;12.73;72.71;101835.16;6214789;23;20331;-81
2022/05/22 01:00:17;;;;;;;2.17;1.90;;;;;;;12.71;72.46;101829.13;6214665;23;20001;-81
2022/05/22 01:05:27;;;;;;;2.00;1.90;;;;;;;12.67;72.47;101811.78;6215029;23;20089;-81
2022/05/22 01:07:56;;;;;;;2.97;1.90;;;;;;;12.65;72.50;101814.41;6213447;23;20402;-80
2022/05/22 01:10:21;;;;;;;3.20;2.00;;;;;;;12.62;72.50;101811.81;6214331;23;20065;-80
2022/05/22 01:12:48;;;;;;;1.97;1.73;;;;;;;12.60;72.76;101807.50;6214410;23;20013;-80
2022/05/22 01:15:14;;;;;;;;;;;;;;;12.57;72.54;101816.19;6214522;23;20028;-80
2022/05/22 01:17:42;;;;;;;2.65;1.90;;;;;;;12.54;72.76;101829.25;6214846;23;19912;-80
2022/05/22 01:20:09;;;;;;;2.72;1.85;;;;;;;12.51;72.48;101829.25;6216964;23;20000;-81
2022/05/22 01:22:34;;;;;;;2.05;1.80;;;;;;;12.48;72.63;101837.97;6215521;23;20009;-81
2022/05/22 01:24:59;;;;;;;3.33;2.10;;;;;;;12.42;72.44;101817.16;6215994;23;20008;-81
2022/05/22 01:27:26;;;;;;;2.10;1.90;;;;;;;12.39;72.61;101822.38;6215991;23;20437;-81
2022/05/22 01:30:04;;;;;;;2.03;1.92;;;;;;;12.33;72.76;101809.44;6215661;23;20092;-80
2022/05/22 01:32:33;;;;;;;2.05;1.85;;;;;;;12.27;72.81;101812.09;6216855;23;20082;-81
2022/05/22 01:34:58;;;;;;;3.50;1.98;;;;;;;12.21;72.82;101802.59;6215627;23;20480;-80
2022/05/22 01:37:24;;;;;;;2.27;1.90;;;;;;;12.15;73.36;101803.50;6216101;23;20008;-80
2022/05/22 01:39:49;;;;;;;2.20;2.00;;;;;;;12.10;73.06;101802.66;6216016;23;20448;-80
2022/05/22 01:42:15;;;;;;;2.07;1.83;;;;;;;12.01;73.26;101793.16;6216198;23;20008;-80
2022/05/22 01:44:40;;;;;;;3.10;2.10;;;;;;;11.99;73.27;101787.09;6215353;23;20019;-80
2022/05/22 01:47:08;;;;;;;2.90;1.97;;;;;;;11.96;73.15;101787.09;6215936;23;20008;-81
2022/05/22 01:49:33;;;;;;;3.38;1.92;;;;;;;11.94;73.29;101788.84;6216301;23;20143;-81
2022/05/22 01:51:59;;;;;;;2.30;2.10;;;;;;;11.91;73.38;101783.63;6215554;23;20044;-81
2022/05/22 01:54:24;;;;;;;2.00;1.90;;;;;;;11.84;73.58;101782.81;6216629;23;20058;-81
2022/05/22 01:56:49;;;;;;;3.03;2.03;;;;;;;11.83;73.47;101783.69;6215893;23;20365;-81
2022/05/22 01:59:15;;;;;;;2.67;2.00;;;;;;;11.82;73.59;101794.09;6215817;23;20406;-81
2022/05/22 02:01:40;;;;;;;2.23;2.03;;;;;;;11.77;73.55;101791.53;6215472;23;20032;-81
2022/05/22 02:04:06;;;;;;;2.57;2.17;;;;;;;11.73;73.80;101797.59;6216070;23;20004;-81
2022/05/22 02:06:31;;;;;;;2.20;2.03;;;;;;;11.70;73.92;101784.63;6215960;23;20004;-81
2022/05/22 02:08:56;;;;;;;2.57;2.10;;;;;;;11.65;73.92;101781.19;6215816;23;20108;-81
2022/05/22 02:11:21;;;;;;;2.83;2.33;;;;;;;11.63;74.03;101777.72;6215556;23;20330;-81
2022/05/22 02:13:48;;;;;;;3.33;2.13;;;;;;;11.58;74.12;101775.13;6215502;23;20016;-80
2022/05/22 02:16:15;;;;;;;4.40;2.00;;;;;;;11.52;74.06;101778.63;6215757;23;20441;-80
2022/05/22 02:18:41;;;;;;;2.75;2.30;;;;;;;11.47;74.20;101772.59;6214681;23;20050;-80
2022/05/22 02:21:06;;;;;;;2.35;2.10;;;;;;;11.43;74.16;101768.28;6215765;23;20035;-80
2022/05/22 02:23:34;;;;;;;2.90;2.20;;;;;;;11.37;74.16;101774.38;6215957;23;20001;-80
2022/05/22 02:25:59;;;;;;;3.08;2.30;;;;;;;11.32;74.56;101770.06;6215147;23;20044;-80
2022/05/22 02:28:30;;;;;;;2.50;2.23;;;;;;;11.28;74.47;101766.59;6216317;23;20055;-80
2022/05/22 02:30:59;;;;;;;2.42;2.00;;;;;;;11.26;74.35;101766.59;6215487;23;20000;-80
2022/05/22 02:33:25;;;;;;;2.47;2.20;;;;;;;11.22;74.49;101754.50;6215529;23;20012;-80
2022/05/22 02:35:51;;;;;;;3.10;2.08;;;;;;;11.21;74.65;101751.88;6215814;23;20009;-80
2022/05/22 02:38:17;;;;;;;3.47;2.40;;;;;;;11.18;74.50;101744.13;6216004;23;20088;-81
2022/05/22 02:40:42;;;;;;;2.70;2.30;;;;;;;11.13;74.58;101747.59;6214741;23;20001;-81
2022/05/22 02:43:08;;;;;;;2.77;2.30;;;;;;;11.11;74.56;101746.72;6216269;23;20573;-81
2022/05/22 02:45:36;;;;;;;2.80;2.30;;;;;;;11.09;74.79;101750.22;6215295;23;20054;-81
2022/05/22 02:48:02;;;;;;;2.45;2.20;;;;;;;11.04;74.74;101739.81;6214703;23;20069;-81
2022/05/22 02:50:29;;;;;;;2.37;2.20;;;;;;;11.01;74.80;101738.97;6215686;23;20008;-81
2022/05/22 02:52:54;;;;;;;2.80;2.30;;;;;;;10.96;75.12;101734.66;6214732;23;20426;-81
2022/05/22 02:55:20;;;;;;;2.33;2.13;;;;;;;10.93;74.86;101739.84;6214672;23;20052;-81
2022/05/22 02:57:46;;;;;;;3.00;2.20;;;;;;;10.93;75.04;101750.22;6215243;23;20005;-81
2022/05/22 03:00:16;;;;;;;3.67;2.37;;;;;;;10.93;75.04;101746.78;6215761;23;20051;-81
2022/05/22 03:02:41;;;;;;;3.22;2.45;;;;;;;10.93;75.16;101749.38;6214516;23;20422;-81
2022/05/22 03:05:07;;;;;;;2.50;2.20;;;;;;;10.91;75.05;101744.19;6215785;23;20012;-81
2022/05/22 03:07:36;;;;;;;2.60;2.30;;;;;;;10.89;74.92;101745.94;6214735;23;20030;-81
2022/05/22 03:10:03;;;;;;;3.03;2.30;;;;;;;10.88;75.22;101752.00;6215681;23;20004;-81
2022/05/22 03:12:28;;;;;;;3.22;2.40;;;;;;;10.86;75.15;101740.72;6215073;23;20008;-81
2022/05/22 03:14:55;;;;;;;2.87;2.47;;;;;;;10.84;75.17;101739.03;6213910;23;20019;-81
2022/05/22 03:17:21;;;;;;;3.55;2.30;;;;;;;10.81;75.27;101732.06;6215503;23;20005;-80
2022/05/22 03:19:47;;;;;;;2.83;2.10;;;;;;;10.75;75.37;101732.09;6215120;23;20029;-81
2022/05/22 03:22:13;;;;;;;3.23;2.37;;;;;;;10.75;75.54;101735.53;6215240;23;20411;-80
2022/05/22 03:24:39;;;;;;;2.77;2.37;;;;;;;10.74;75.50;101732.97;6215287;23;20016;-80
2022/05/22 03:27:10;;;;;;;3.75;2.28;;;;;;;10.73;75.53;101734.72;6215261;23;20004;-80
2022/05/22 03:29:39;;;;;;;2.45;2.10;;;;;;;10.70;75.85;101724.31;6215135;23;20004;-80
2022/05/22 03:32:05;;;;;;;3.22;2.13;;;;;;;10.65;75.69;101720.84;6215635;23;20005;-80
2022/05/22 03:34:31;;;;;;;3.78;2.35;;;;;;;10.63;75.62;101725.22;6215192;23;20504;-81
2022/05/22 03:36:57;;;;;;;2.80;2.27;;;;;;;10.59;75.67;101721.72;6214480;23;20032;-81
2022/05/22 03:39:23;;;;;;;;;;;;;;;10.58;75.80;101725.22;6215928;23;20019;-80
2022/05/22 03:41:49;;;;;;;2.60;2.27;;;;;;;10.54;75.73;101723.47;6214238;23;19942;-80
2022/05/22 03:44:14;;;;;;;2.53;2.20;;;;;;;10.51;75.88;101713.09;6214856;23;20005;-80
2022/05/22 03:46:39;;;;;;;2.90;2.33;;;;;;;10.49;75.70;101713.09;6214998;23;20362;-80
2022/05/22 03:49:05;;;;;;;3.13;2.47;;;;;;;10.46;76.01;101707.06;6215337;23;20008;-81
2022/05/22 03:51:30;;;;;;;2.60;2.40;;;;;;;10.47;76.07;101708.78;6214620;23;20413;-80
2022/05/22 03:53:55;;;;;;;2.77;2.40;;;;;;;10.45;75.85;101702.72;6214593;23;20708;-81
2022/05/22 03:56:21;;;;;;;3.47;2.60;;;;;;;10.43;75.98;101701.88;6214261;23;20005;-80
2022/05/22 03:58:49;;;;;;;3.33;2.47;;;;;;;10.41;76.02;101706.19;6214094;23;20005;-80
2022/05/22 04:01:15;;;;;;;4.18;2.60;;;;;;;10.40;76.18;101715.72;6215079;23;20007;-80
2022/05/22 04:03:40;;;;;;;3.13;2.43;;;;;;;10.39;76.17;101710.50;6213393;23;20004;-80
2022/05/22 04:06:08;;;;;;;2.73;2.20;;;;;;;10.39;76.20;101713.09;6214715;23;20418;-80
2022/05/22 04:08:34;;;;;;;2.80;2.30;;;;;;;10.41;76.35;101721.75;6215168;23;20071;-80
2022/05/22 04:11:08;;;;;;;2.53;2.30;;;;;;;10.40;76.26;101713.13;6214107;23;20327;-82
2022/05/22 04:13:33;;;;;;;3.17;2.50;;;;;;;10.42;76.09;101707.91;6214800;23;20282;-80
2022/05/22 04:15:58;;;;;;;3.23;2.50;;;;;;;10.44;76.13;101712.22;6214617;23;20457;-80
2022/05/22 04:18:24;;;;;;;3.50;2.50;;;;;;;10.43;76.06;101712.25;6214384;23;20001;-80
2022/05/22 04:20:50;;;;;;;2.77;2.50;;;;;;;10.43;76.88;101712.25;6215012;23;20418;-81
2022/05/22 04:25:59;;;;;;;2.35;2.17;;;;;;;10.43;76.49;101704.47;6213847;23;20416;-81
2022/05/22 04:28:26;;;;;;;2.90;2.50;;;;;;;10.45;76.61;101703.59;6215135;23;20028;-81
2022/05/22 04:30:52;;;;;;;3.15;2.50;;;;;;;10.48;76.47;101701.00;6214420;23;20004;-80
2022/05/22 04:33:18;;;;;;;2.67;2.23;;;;;;;10.50;76.70;101706.16;6214086;23;20000;-81
2022/05/22 04:35:43;;;;;;;3.07;2.37;;;;;;;10.53;76.66;101706.19;6214607;23;20326;-80
2022/05/22 04:38:10;;;;;;;3.50;2.17;;;;;;;10.54;76.37;101700.13;6214989;23;20016;-81
2022/05/22 04:40:37;;;;;;;;;;;;;;;10.56;76.49;101695.78;6214911;23;20143;-81
2022/05/22 04:43:02;;;;;;;;;;;;;;;10.58;76.83;101701.84;6215668;23;19962;-81
2022/05/22 04:45:27;;;;;;;2.50;2.30;;;;;;;10.61;76.80;101708.75;6214723;23;19907;-81
2022/05/22 04:47:53;;;;;;;2.57;2.37;;;;;;;10.64;76.98;101711.34;6214171;23;20043;-81
2022/05/22 04:50:18;;;;;;;2.60;2.40;;;;;;;10.69;76.81;101711.34;6214884;23;20096;-80
2022/05/22 04:52:43;;;;;;;3.73;2.47;;;;;;;10.74;76.55;101715.66;6214960;23;20001;-81
2022/05/22 04:55:09;;;;;;;2.97;2.50;;;;;;;10.80;76.99;101707.00;6216383;23;20006;-80
2022/05/22 04:57:35;;;;;;;2.83;2.40;;;;;;;10.87;76.72;101710.41;6217057;23;20005;-80
2022/05/22 05:00:02;;;;;;;3.30;2.27;;;;;;;10.91;78.04;101709.56;6215390;23;20429;-81
2022/05/22 05:02:28;;;;;;;2.95;2.50;;;;;;;10.91;77.41;101707.84;6216837;23;20018;-81
2022/05/22 05:04:57;;;;;;;3.17;2.50;;;;;;;10.93;77.26;101690.50;6216259;23;20323;-81
2022/05/22 05:07:23;;;;;;;2.60;2.40;;;;;;;10.97;77.38;101693.97;6215619;23;20016;-81
2022/05/22 05:09:49;;;;;;;2.80;2.30;;;;;;;11.01;77.30;101692.22;6216069;23;20325;-80
2022/05/22 05:12:14;;;;;;;2.53;2.30;;;;;;;11.05;77.12;101691.31;6216196;23;20322;-80
2022/05/22 05:14:40;;;;;;;4.70;2.93;;;;;;;11.09;77.35;101690.44;6215401;23;20016;-81
2022/05/22 05:17:13;;;;;;;4.23;2.40;;;;;;;11.13;77.26;101686.97;6216709;23;20000;-81
2022/05/22 05:19:39;;;;;;;6.53;3.67;;;;;;;11.14;77.75;101696.50;6216100;23;20005;-83
2022/05/22 05:22:04;;;;;;;6.47;3.50;;;;;;;11.20;79.61;101695.63;6214613;23;20016;-81
2022/05/22 05:24:29;;;;;;;5.57;3.60;;;;;;;11.26;77.53;101703.38;6216628;23;20012;-81
2022/05/22 05:26:55;;;;;;;4.13;3.10;;;;;;;11.32;77.89;101698.13;6216169;23;20406;-80
2022/05/22 05:29:21;;;;;;;5.03;3.47;;;;;;;11.37;77.75;101690.34;6216216;23;19996;-80
2022/05/22 05:31:49;;;;;;;7.83;4.50;;;;;;;11.42;78.16;101696.38;6216354;23;20004;-81
2022/05/22 05:34:15;;;;;;;9.07;4.82;;;;;;;11.44;79.24;101698.06;6216696;23;20247;-81
2022/05/22 05:36:40;;;;;;;7.03;4.20;;;;;;;11.48;78.66;101696.34;6215052;23;20005;-81
2022/05/22 05:39:07;;;;;;;8.93;4.90;;;;;;;11.54;79.47;101705.84;6216446;23;20001;-80
2022/05/22 05:41:35;;;;;;;;;;;;;;;11.55;78.79;101703.22;6216839;23;20012;-81
2022/05/22 05:44:05;;;;;;;7.90;4.68;;;;;;;11.59;79.04;101701.47;6215118;23;19915;-81
2022/05/22 05:46:30;;;;;;;6.95;4.32;;;;;;;11.66;77.73;101702.31;6216796;23;20005;-81
2022/05/22 05:48:56;;;;;;;4.43;3.50;;;;;;;11.72;78.07;101703.13;6215900;23;20035;-81
2022/05/22 05:51:21;;;;;;;8.73;4.60;;;;;;;11.76;78.80;101698.78;6215982;23;20004;-81
2022/05/22 05:53:49;;;;;;;10.57;4.93;;;;;;;11.79;79.61;101703.97;6216156;23;20329;-81
2022/05/22 05:56:15;;;;;;;11.20;6.20;;;;;;;11.82;79.93;101703.91;6215515;23;20009;-82
2022/05/22 05:58:40;;;;;;;8.30;4.90;;;;;;;11.86;78.63;101703.03;6215821;23;20468;-83
2022/05/22 06:01:05;;;;;;;10.37;5.77;;;;;;;11.91;78.28;101700.41;6216045;23;20123;-83
2022/05/22 06:03:31;;;;;;;7.47;4.63;;;;;;;12.05;79.34;101703.81;6215041;23;20088;-84
2022/05/22 06:05:57;;;;;;;6.18;3.90;;;;;;;12.15;77.93;101709.81;6215773;23;20004;-81
2022/05/22 06:08:22;;;;;;;6.63;4.27;;;;;;;12.26;78.81;101711.47;6215611;23;20063;-79
2022/05/22 06:10:47;;;;;;;7.07;4.77;;;;;;;12.33;78.51;101711.38;6215391;23;20012;-79
2022/05/22 06:13:13;;;;;;;5.33;4.00;;;;;;;12.40;78.29;101716.53;6215818;23;20008;-79
2022/05/22 06:15:38;;;;;;;7.47;4.80;;;;;;;12.49;77.83;101708.63;6215423;23;20016;-80
2022/05/22 06:18:03;;;;;;;8.70;4.90;;;;;;;12.66;76.30;101705.88;6214875;23;20485;-79
2022/05/22 06:20:29;;;;;;;6.37;4.33;;;;;;;13.01;76.97;101699.41;6215870;23;20009;-79
2022/05/22 06:22:54;;;;;;;6.87;4.20;;;;;;;13.43;77.24;101697.16;6215228;23;20032;-80
2022/05/22 06:25:20;;;;;;;13.63;7.50;;;;;;;13.78;74.73;101705.41;6215410;23;20044;-79
2022/05/22 06:27:46;;;;;;;10.20;5.90;;;;;;;14.08;74.82;101699.69;6215953;23;20059;-79
2022/05/22 06:30:13;;;;;;;9.17;5.30;;;;;;;14.80;72.98;101711.53;6215950;23;20457;-80
2022/05/22 06:32:41;;;;;;;8.90;4.88;;;;;;;15.72;72.84;101704.38;6213979;23;20004;-79
2022/05/22 06:35:08;;;;;;;6.57;4.10;;;;;;;16.53;70.16;101713.78;6215995;23;20031;-80
2022/05/22 06:37:33;;;;;;;5.70;3.90;;;;;;;17.13;67.68;101706.91;6215652;23;20004;-79
2022/05/22 06:39:59;;;;;;;8.33;4.50;;;;;;;17.64;66.34;101716.78;6214674;23;20008;-79
2022/05/22 06:42:25;;;;;;;7.23;4.47;;;;;;;17.75;65.03;101710.28;6215796;23;20004;-82
2022/05/22 06:44:59;;;;;;;;;;;;;;;17.92;66.01;101714.13;6214952;23;20023;-82
2022/05/22 06:47:27;;;;;;;6.63;3.90;;;;;;;17.59;65.25;101707.28;6214939;23;19908;-82
2022/05/22 06:49:52;;;;;;;5.82;3.88;;;;;;;17.23;66.09;101709.25;6215476;23;20011;-82
2022/05/22 06:52:18;;;;;;;7.03;3.73;;;;;;;16.92;64.72;101720.59;6215402;23;20083;-82
2022/05/22 06:54:44;;;;;;;3.43;2.90;;;;;;;16.58;66.95;101718.88;6214690;23;20001;-82
2022/05/22 06:57:09;;;;;;;8.10;3.90;;;;;;;16.36;65.93;101714.22;6215458;23;20020;-82
2022/05/22 06:59:35;;;;;;;6.80;4.47;;;;;;;16.28;67.72;101714.41;6214853;23;20012;-82
2022/05/22 07:02:00;;;;;;;6.30;4.10;;;;;;;16.35;68.12;101717.72;6215291;23;20008;-81
2022/05/22 07:04:27;;;;;;;6.70;3.80;;;;;;;16.52;65.71;101714.66;6215273;23;20019;-82
2022/05/22 07:06:52;;;;;;;7.60;4.03;;;;;;;16.59;67.13;101712.75;6214299;23;20009;-83
2022/05/22 07:09:18;;;;;;;8.33;4.97;;;;;;;16.67;67.39;101709.03;6215053;23;20433;-81
2022/05/22 07:11:45;;;;;;;5.73;3.97;;;;;;;16.78;67.07;101716.59;6214446;23;20046;-83
2022/05/22 07:14:13;;;;;;;5.00;3.25;;;;;;;16.85;66.56;101701.53;6214325;23;20036;-82
2022/05/22 07:16:39;;;;;;;10.70;5.07;;;;;;;16.76;66.67;101701.81;6214880;23;20040;-82
2022/05/22 07:19:08;;;;;;;6.90;4.60;;;;;;;16.72;66.81;101695.78;6215207;23;20005;-84
2022/05/22 07:21:33;;;;;;;7.40;4.40;;;;;;;16.87;67.46;101715.47;6213795;23;20047;-82
2022/05/22 07:24:01;;;;;;;6.67;3.90;;;;;;;16.98;66.59;101704.72;6214846;23;20008;-83
2022/05/22 07:26:28;;;;;;;6.28;3.65;;;;;;;17.04;66.62;101704.53;6214607;23;20005;-88
2022/05/22 07:28:53;;;;;;;6.28;4.35;;;;;;;17.18;66.81;101701.50;6214169;23;20381;-83
2022/05/22 07:31:24;;;;;;;6.33;3.90;;;;;;;17.35;66.19;101687.91;6215001;23;20012;-83
2022/05/22 07:33:50;;;;;;;5.40;3.70;;;;;;;17.52;66.20;101697.03;6213774;23;20063;-83
2022/05/22 07:36:16;;;;;;;5.18;3.20;;;;;;;17.59;66.24;101691.53;6214684;23;20008;-82
2022/05/22 07:38:42;;;;;;;;;;;;;;;17.66;66.10;101697.47;6215090;23;20082;-83
2022/05/22 07:41:07;;;;;;;6.45;3.50;;;;;;;17.69;66.06;101692.09;6214984;23;19954;-82
2022/05/22 07:43:32;;;;;;;5.93;3.20;;;;;;;17.76;65.80;101695.38;6214183;23;20012;-82
2022/05/22 07:45:58;;;;;;;5.60;3.50;;;;;;;17.80;66.18;101702.28;6214789;23;20055;-82
2022/05/22 07:48:23;;;;;;;4.90;3.47;;;;;;;17.85;64.24;101699.50;6214619;23;20436;-82
2022/05/22 07:51:00;;;;;;;4.90;3.20;;;;;;;17.81;65.14;101696.13;6214393;23;20079;-82
2022/05/22 07:53:26;;;;;;;;;;;;;;;17.83;64.98;101691.69;6214952;23;20011;-82
2022/05/22 07:55:51;;;;;;;9.35;4.85;;;;;;;17.81;62.55;101692.63;6214007;23;19955;-82
2022/05/22 07:58:19;;;;;;;7.40;3.80;;;;;;;17.79;64.86;101690.03;6215132;23;20012;-83
2022/05/22 08:01:16;;;;;;;3.28;2.80;;;;;;;17.87;63.57;101676.69;6214497;23;20004;-82
2022/05/22 08:03:42;;;;;;;4.22;2.90;;;;;;;17.90;64.55;101664.31;6203218;23;20382;-83
2022/05/22 08:06:07;;;;;;;3.37;2.70;;;;;;;18.09;64.68;101681.25;6214914;23;20005;-81
2022/05/22 08:08:32;;;;;;;3.40;2.50;;;;;;;18.23;62.36;101681.66;6215020;23;20025;-81
2022/05/22 08:10:58;;;;;;;4.23;2.57;;;;;;;18.37;61.82;101682.00;6213139;23;20067;-81
2022/05/22 08:13:24;;;;;;;2.47;2.22;;;;;;;18.50;61.64;101676.31;6213586;23;20015;-81
2022/05/22 08:15:50;;;;;;;7.28;3.50;;;;;;;18.45;60.26;101665.97;6214693;23;20091;-82
2022/05/22 08:18:18;;;;;;;7.80;4.17;;;;;;;18.39;56.91;101660.94;6214081;23;20078;-82
2022/05/22 08:20:44;;;;;;;10.57;5.15;;;;;;;18.33;57.45;101663.78;6213854;23;20004;-81
2022/05/22 08:23:11;;;;;;;;;;;;;;;18.32;56.86;101659.44;6214988;23;20009;-81
2022/05/22 08:25:37;;;;;;;9.68;4.50;;;;;;;18.18;57.56;101649.41;6213896;23;19911;-81
2022/05/22 08:28:04;;;;;;;7.37;3.60;;;;;;;18.15;58.49;101637.25;6215525;23;20017;-80
2022/05/22 08:30:30;;;;;;;5.85;2.60;;;;;;;18.26;59.13;101636.00;6217735;23;20009;-81
2022/05/22 08:32:56;;;;;;;4.43;2.90;;;;;;;18.39;54.76;101639.94;6217155;23;20016;-82
2022/05/22 08:35:25;;;;;;;6.80;3.38;;;;;;;18.31;53.11;101644.56;6217548;23;20004;-81
2022/05/22 08:37:50;;;;;;;11.85;4.80;;;;;;;18.26;54.15;101628.13;6216969;23;20043;-82
2022/05/22 08:40:18;;;;;;;5.97;2.97;;;;;;;18.36;57.45;101617.22;6217580;23;20011;-81
2022/05/22 08:42:47;;;;;;;6.00;3.33;;;;;;;18.50;53.98;101621.13;6217068;23;20085;-81
2022/05/22 08:45:20;;;;;;;5.10;3.00;;;;;;;18.60;56.38;101619.03;6217204;23;20067;-82
2022/05/22 08:48:06;;;;;;;11.65;4.80;;;;;;;18.66;54.20;101617.03;6217881;23;20032;-82
2022/05/22 08:50:32;;;;;;;4.13;3.07;;;;;;;18.74;57.27;101608.88;6217614;23;20005;-82
2022/05/22 08:53:03;;;;;;;3.70;2.50;;;;;;;18.94;57.32;101607.28;6216790;23;20330;-81
2022/05/22 09:01:15;;;;;;;3.30;2.15;;;;;;;19.11;57.31;101604.00;6217432;23;20055;-81
2022/05/22 09:03:55;;;;;;;3.80;2.20;;;;;;;19.23;57.01;101598.25;6216985;23;20004;-81
2022/05/22 09:06:29;;;;;;;2.90;2.15;;;;;;;19.29;51.74;101595.38;6217430;23;20024;-81
2022/05/22 09:08:54;;;;;;;3.60;2.15;;;;;;;19.34;53.57;101592.53;6217726;23;20460;-82
2022/05/22 09:11:41;;;;;;;4.20;2.50;;;;;;;19.42;50.62;101595.72;6217842;23;20001;-81
2022/05/22 09:14:09;;;;;;;8.10;3.58;;;;;;;19.20;53.42;101584.34;6217268;23;20396;-82
2022/05/22 09:16:51;;;;;;;5.20;2.60;;;;;;;19.27;53.74;101589.31;6217722;23;20035;-82
2022/05/22 09:19:33;;;;;;;5.55;2.90;;;;;;;19.45;51.64;101587.69;6217870;23;20032;-82
2022/05/22 09:22:17;;;;;;;2.83;2.10;;;;;;;19.69;52.04;101584.13;6217101;23;20091;-82
2022/05/22 09:25:12;;;;;;;5.25;3.30;;;;;;;19.73;51.48;101577.78;6217249;23;20019;-82
2022/05/22 09:27:56;;;;;;;3.67;2.60;;;;;;;19.68;51.63;101579.78;6216724;23;20005;-81
2022/05/22 09:30:32;;;;;;;6.50;3.20;;;;;;;19.49;50.69;101569.16;6217347;23;20008;-84
2022/05/22 09:32:57;;;;;;;5.10;2.65;;;;;;;19.38;52.93;101577.47;6217398;23;20011;-82
2022/05/22 09:35:30;;;;;;;7.47;3.50;;;;;;;19.39;51.28;101571.31;6216275;23;19996;-83
2022/05/22 09:38:02;;;;;;;7.68;3.75;;;;;;;19.33;50.06;101569.78;6216425;23;20016;-85
2022/05/22 09:40:49;;;;;;;3.58;2.60;;;;;;;19.36;52.76;101566.19;6216032;23;20004;-83
2022/05/22 09:43:17;;;;;;;4.05;2.53;;;;;;;19.49;48.86;101564.72;6215499;23;20067;-84
2022/05/22 09:46:14;;;;;;;7.85;4.13;;;;;;;19.37;51.57;101563.47;6215492;23;20067;-84
2022/05/22 09:48:52;;;;;;;4.30;2.72;;;;;;;19.40;52.65;101559.84;6215451;23;20463;-84
2022/05/22 09:51:47;;;;;;;3.08;2.13;;;;;;;19.59;52.37;101552.91;6216199;23;20084;-84
2022/05/22 09:54:43;;;;;;;6.85;2.95;;;;;;;19.81;51.82;101548.50;6215830;23;20437;-83
2022/05/22 09:57:33;;;;;;;5.38;3.03;;;;;;;19.75;52.08;101547.00;6215019;23;20084;-84
2022/05/22 10:00:11;;;;;;;4.60;2.80;;;;;;;19.79;52.03;101552.97;6212697;23;20006;-84
2022/05/22 10:03:01;;;;;;;4.45;2.80;;;;;;;19.82;51.87;101558.13;6212829;23;20337;-82
2022/05/22 10:05:57;;;;;;;5.78;3.00;;;;;;;19.94;49.52;101562.03;6214919;23;20434;-82
2022/05/22 10:08:40;;;;;;;;;;;;;;;20.01;52.47;101564.31;6216473;23;20008;-82
2022/05/22 10:11:43;;;;;;;7.03;3.30;;;;;;;20.32;51.32;101559.47;6215014;23;19939;-81
2022/05/22 10:14:47;;;;;;;4.68;2.50;;;;;;;20.68;52.36;101550.81;6210909;23;20064;-81
2022/05/22 10:17:49;;;;;;;6.53;3.10;;;;;;;21.01;46.01;101552.81;6094063;23;20017;-81
2022/05/22 10:20:23;;;;;;;7.32;3.60;;;;;;;20.97;47.55;101549.47;6214542;23;20315;-81
2022/05/22 10:23:11;;;;;;;7.00;3.65;;;;;;;20.98;47.81;101539.75;6215447;23;20055;-82
2022/05/22 10:25:54;;;;;;;3.33;2.60;;;;;;;21.10;49.59;101539.16;6215176;23;20032;-82
2022/05/22 10:28:26;;;;;;;4.45;2.83;;;;;;;21.29;48.33;101541.75;6215973;23;20298;-81
2022/05/22 10:30:59;;;;;;;13.23;6.10;;;;;;;20.86;44.87;101540.34;6214474;23;20198;-82
2022/05/22 10:34:02;;;;;;;9.18;3.78;;;;;;;21.06;48.63;101540.22;6215327;23;20017;-82
2022/05/22 10:36:34;;;;;;;7.28;3.33;;;;;;;21.38;48.54;101536.94;6215798;23;20008;-82
2022/05/22 10:39:11;;;;;;;5.75;2.80;;;;;;;21.65;47.78;101540.00;6214998;23;20013;-82
2022/05/22 10:44:40;;;;;;;1.60;1.50;;;;;;;22.01;49.32;101525.81;6214628;23;20032;-82
2022/05/22 10:47:05;;;;;;;4.32;2.70;;;;;;;22.10;47.83;101519.19;6215633;23;20015;-81
2022/05/22 10:49:41;;;;;;;7.20;3.70;;;;;;;21.96;42.71;101511.16;6215051;23;20024;-80
2022/05/22 10:52:09;;;;;;;8.95;3.90;;;;;;;21.67;43.57;101513.53;6215017;23;20325;-81
2022/05/22 10:54:45;;;;;;;8.00;3.58;;;;;;;21.66;42.56;101502.09;6215187;23;20073;-80
2022/05/22 10:57:24;;;;;;;12.13;5.10;;;;;;;21.29;43.54;101507.44;6213577;23;20001;-82
2022/05/22 10:59:53;;;;;;;6.38;3.10;;;;;;;21.47;45.80;101496.03;6213096;23;20005;-82
2022/05/22 11:02:30;;;;;;;3.80;2.40;;;;;;;21.83;46.75;101485.38;6211023;23;20436;-82
2022/05/22 11:04:57;;;;;;;4.63;2.70;;;;;;;22.20;44.74;101478.13;6213603;23;20005;-81
2022/05/22 11:07:29;;;;;;;4.30;2.60;;;;;;;22.43;45.85;101478.69;6212515;23;20009;-81
2022/05/22 11:09:55;;;;;;;7.90;4.18;;;;;;;22.36;40.25;101480.78;6212731;23;20092;-81
2022/05/22 11:12:22;;;;;;;;;;;;;;;22.29;42.15;101476.75;6213675;23;20083;-82
2022/05/22 11:14:47;;;;;;;7.72;3.30;;;;;;;22.34;42.03;101469.41;6210669;23;19916;-82
2022/05/22 11:17:20;;;;;;;4.33;2.40;;;;;;;22.56;42.46;101478.84;6212279;23;20015;-82
2022/05/22 11:19:48;;;;;;;2.40;2.13;;;;;;;22.59;43.15;101476.03;6212655;23;20004;-82
2022/05/22 11:22:38;;;;;;;2.10;1.90;;;;;;;22.50;42.61;101471.25;6213747;23;20075;-82
2022/05/22 11:25:31;;;;;;;3.38;2.08;;;;;;;22.39;44.05;101473.63;6212336;23;20075;-83
2022/05/22 11:28:15;;;;;;;3.92;2.10;;;;;;;22.30;45.18;101459.94;6212900;23;20023;-82
2022/05/22 11:30:52;;;;;;;5.80;3.20;;;;;;;22.26;42.62;101447.84;6213241;23;20483;-80
2022/05/22 11:33:40;;;;;;;8.25;3.00;;;;;;;22.37;44.58;101456.03;6215186;23;20426;-83
2022/05/22 11:36:34;;;;;;;7.40;3.33;;;;;;;22.41;42.39;101447.94;6214391;23;20004;-83
2022/05/22 11:39:30;;;;;;;4.43;2.30;;;;;;;22.42;44.88;101436.44;6188411;23;20426;-83
2022/05/22 11:42:04;;;;;;;2.30;1.83;;;;;;;22.61;44.91;101431.81;6214713;23;20032;-83
2022/05/22 11:45:00;;;;;;;1.83;1.70;;;;;;;22.60;43.66;101419.53;6215292;23;20016;-83
2022/05/22 11:47:53;;;;;;;2.30;1.80;;;;;;;22.65;44.53;101421.91;6215554;23;20138;-83
2022/05/22 11:50:49;;;;;;;5.50;3.05;;;;;;;22.76;41.32;101416.00;6213380;23;20008;-82
2022/05/22 11:53:33;;;;;;;;;;;;;;;22.62;42.44;101415.03;6214867;23;20008;-83
2022/05/22 11:55:58;;;;;;;9.23;3.42;;;;;;;22.82;42.25;101419.13;6213945;23;20214;-83